Etusivu
METAR-TAF:

METAR-TAF

Lentoasemat :

Ålesund, Norja

Leveyspiiri: 62-34N, Pituuspiiri: 006-07E, korkeus merenpinnasta: 2 m

Tämänhetkinen sää

Tämä raportti tehtiin 16 minuuttia sitten, kello 11.20 UTC
Tuuli 13 kn koillisesta
Lämpötila 12°C
Kosteus 76%
Ilmanpaine 1014 hPa
Näkyvyys 10 km tai enemmän
Muutamia pilviä 1700 ft:n korkeudessa

METAR: ENAL 291120Z 05013KT 9999 FEW017 12/08 Q1014

Aika: 13:36 (11:36 UTC)

Sääennuste

Tämä raportti tehtiin 3 tuntia ja 36 minuuttia sitten, kello 08.00 UTC
Ennuste voimassa 29. päivästä klo 09 UTC - 29. päivään klo 18 UTC
Tuuli 15 kn koillisesta
Näkyvyys 10 km tai enemmän
Hajanaisia pilviä 1500 ft:n korkeudessa
Hajanaisia pilviä 4000 ft:n korkeudessa

TAF: ENAL 290800Z 2909/2918 05015KT 9999 SCT015 SCT040

Säähavainnot ja -ennusteet yli 4000 lentoasemalta (METAR- ja TAF-raportit).

Käytössä olevat sääasemat on merkitty karttaan keltaisilla ja punaisilla pisteillä.

Aseta hiiri pisteen päälle nähdäksesi sääaseman nimen.

Klikkaa sitten nähdäksesi säähavainnot ja -ennusteet.

Kartan vaihtaminen: klikkaa mustalla rastilla varustettuja vihreitä pisteitä, niin voit zoomata sisään; viivalla varustettua vihreää pistettä, niin voit zoomata ulos tai vihreitä nuolia, niin pääset viereisille kartoille.


METAR-TAF: